FW7145 Weather Reports


Display with metric or nautical units.
time (UTC)temp
F
wind
direction
speed
MPH
gust
MPH
rain 1hr
in
rain 24hr
in
rain mn
in
humidity
%
barometer
mb
20200709204517 69 103 0.0 0.0 0.00 0.00 0.00 73 1018.7
20200709204016 69 107 0.0 0.0 0.00 0.00 0.00 74 1018.7
20200709203514 69 121 3.0 5.0 0.00 0.00 0.00 73 1018.7
20200709203014 69 101 0.0 1.0 0.00 0.00 0.00 74 1018.6
20200709202508 69 110 0.0 0.0 0.00 0.00 0.00 75 1018.8
20200709202007 69 109 0.0 0.0 0.00 0.00 0.00 75 1019.0
20200709201505 69 98 0.0 0.0 0.00 0.00 0.00 73 1018.7
20200709200958 69 98 1.0 1.0 0.00 0.00 0.00 73 1018.9
20200709200458 70 66 0.0 1.0 0.00 0.00 0.00 72 1018.7
20200709195955 69 106 1.0 1.0 0.00 0.00 0.00 72 1018.8
20200709195451 69 121 0.0 0.0 0.00 0.00 0.00 72 1018.8
20200709194945 70 118 0.0 1.0 0.00 0.00 0.00 72 1018.7
20200709194442 69 117 1.0 1.0 0.00 0.00 0.00 71 1018.8
20200709193938 70 105 0.0 0.0 0.00 0.00 0.00 70 1019.0
20200709193532 70 133 0.0 0.0 0.00 0.00 0.00 70 1019.0
20200709192934 70 238 1.0 2.0 0.00 0.00 0.00 69 1018.8
20200709192430 69 89 2.0 3.0 0.00 0.00 0.00 69 1019.1
20200709191929 70 94 0.0 1.0 0.00 0.00 0.00 70 1019.0
20200709191426 70 94 0.0 0.0 0.00 0.00 0.00 70 1018.8
20200709190921 70 124 0.0 1.0 0.00 0.00 0.00 71 1018.9
20200709190421 70 112 0.0 0.0 0.00 0.00 0.00 71 1018.9
20200709185920 70 134 0.0 0.0 0.00 0.00 0.00 70 1019.2
20200709185414 70 110 0.0 1.0 0.00 0.00 0.00 70 1019.2
20200709184910 71 112 0.0 1.0 0.00 0.00 0.00 69 1018.9
20200709184411 71 126 2.0 2.0 0.00 0.00 0.00 69 1019.0
20200709183910 71 105 1.0 1.0 0.00 0.00 0.00 70 1018.9
20200709183409 71 105 0.0 0.0 0.00 0.00 0.00 70 1018.8
20200709182905 71 115 1.0 1.0 0.00 0.00 0.00 70 1019.0
20200709182405 71 113 0.0 0.0 0.00 0.00 0.00 70 1018.8
20200709181900 71 104 0.0 0.0 0.00 0.00 0.00 69 1019.0
20200709181357 71 109 0.0 0.0 0.00 0.00 0.00 70 1018.9
20200709180900 71 99 0.0 0.0 0.00 0.00 0.00 70 1018.8
20200709180356 71 120 0.0 1.0 0.00 0.00 0.00 69 1018.9
20200709175855 71 119 0.0 1.0 0.00 0.00 0.00 70 1019.0
20200709175348 71 98 0.0 1.0 0.00 0.00 0.00 71 1018.7
20200709174844 71 84 1.0 1.0 0.00 0.00 0.00 71 1018.8
20200709174339 72 125 1.0 1.0 0.00 0.00 0.00 71 1018.8
20200709173837 72 125 0.0 1.0 0.00 0.00 0.00 69 1018.6
20200709173334 72 106 1.0 1.0 0.00 0.00 0.00 70 1018.7
20200709172832 72 130 1.0 1.0 0.00 0.00 0.00 70 1018.5
20200709172329 72 121 0.0 0.0 0.00 0.00 0.00 70 1018.8
20200709171825 73 81 0.0 0.0 0.00 0.00 0.00 69 1018.6
20200709171323 73 157 1.0 1.0 0.00 0.00 0.00 68 1018.6
20200709170819 73 115 0.0 0.0 0.00 0.00 0.00 68 1018.8
20200709170315 74 119 3.0 3.0 0.00 0.00 0.00 66 1018.6
20200709165814 74 87 0.0 1.0 0.00 0.00 0.00 66 1018.6
20200709165312 75 318 2.0 3.0 0.00 0.00 0.00 64 1018.7
20200709164812 75 98 0.0 0.0 0.00 0.00 0.00 63 1018.8
20200709164309 75 159 1.0 1.0 0.00 0.00 0.00 62 1018.6
20200709163809 75 106 0.0 0.0 0.00 0.00 0.00 65 1018.5
20200709163305 74 153 1.0 1.0 0.00 0.00 0.00 65 1018.8
20200709162801 75 146 2.0 2.0 0.00 0.00 0.00 64 1018.8
20200709162305 75 93 1.0 1.0 0.00 0.00 0.00 64 1018.6
20200709161800 76 176 2.0 3.0 0.00 0.00 0.00 64 1018.6
20200709161257 76 137 5.0 7.0 0.00 0.00 0.00 63 1018.7
20200709160753 76 113 1.0 2.0 0.00 0.00 0.00 63 1018.8
20200709160253 76 356 2.0 3.0 0.00 0.00 0.00 64 1018.6
20200709155752 76 114 0.0 0.0 0.00 0.00 0.00 65 1018.7
20200709155247 76 143 2.0 2.0 0.00 0.00 0.00 63 1018.9
20200709154744 77 97 0.0 0.0 0.00 0.00 0.00 63 1018.6
20200709154241 76 111 0.0 1.0 0.00 0.00 0.00 64 1018.4
20200709153738 76 123 0.0 1.0 0.00 0.00 0.00 65 1018.6
20200709153240 77 96 5.0 7.0 0.00 0.00 0.00 62 1018.6
20200709152730 77 116 0.0 1.0 0.00 0.00 0.00 61 1018.4
20200709152227 76 103 0.0 1.0 0.00 0.00 0.00 63 1018.7
20200709151726 77 118 3.0 6.0 0.00 0.00 0.00 62 1018.3
20200709151220 77 119 1.0 1.0 0.00 0.00 0.00 59 1018.6
20200709150716 76 230 2.0 2.0 0.00 0.00 0.00 60 1018.7
20200709150212 76 194 0.0 1.0 0.00 0.00 0.00 62 1018.6
20200709145711 76 108 1.0 1.0 0.00 0.00 0.00 60 1018.4
20200709145206 76 171 1.0 1.0 0.00 0.00 0.00 61 1018.5
20200709144705 77 188 5.0 7.0 0.00 0.00 0.00 60 1018.6
20200709144200 77 83 0.0 1.0 0.00 0.00 0.00 59 1018.6
20200709143659 77 107 1.0 1.0 0.00 0.00 0.00 60 1018.7
20200709143210 79 141 0.0 1.0 0.00 0.00 0.00 57 1018.4
20200709142654 78 94 3.0 3.0 0.00 0.00 0.00 57 1018.3
20200709142150 79 104 1.0 1.0 0.00 0.00 0.00 58 1018.5
20200709141646 79 355 2.0 2.0 0.00 0.00 0.00 54 1018.5
20200709141142 78 320 2.0 2.0 0.00 0.00 0.00 56 1018.6
20200709140640 77 125 1.0 2.0 0.00 0.00 0.00 59 1018.8
20200709140135 78 166 4.0 6.0 0.00 0.00 0.00 58 1018.9
20200709135631 77 240 1.0 2.0 0.00 0.00 0.00 59 1018.6
20200709135127 78 206 3.0 5.0 0.00 0.00 0.00 60 1018.8
20200709134625 79 165 1.0 2.0 0.00 0.00 0.00 56 1018.5
20200709134121 78 91 1.0 2.0 0.00 0.00 0.00 57 1018.5
20200709133617 80 116 1.0 1.0 0.00 0.00 0.00 59 1018.9
20200709133117 80 214 2.0 5.0 0.00 0.00 0.00 57 1019.0
20200709132615 79 304 1.0 2.0 0.00 0.00 0.00 60 1018.9
20200709132112 80 140 1.0 2.0 0.00 0.00 0.00 61 1018.8
20200709131613 80 109 2.0 3.0 0.00 0.00 0.00 60 1018.8
20200709131110 78 210 1.0 2.0 0.00 0.00 0.00 57 1019.1
20200709130606 77 207 0.0 1.0 0.00 0.00 0.00 61 1019.0
20200709130103 79 114 3.0 5.0 0.00 0.00 0.00 61 1019.0
20200709125557 79 112 0.0 1.0 0.00 0.00 0.00 61 1019.0
20200709125052 80 268 0.0 0.0 0.00 0.00 0.00 56 1018.7
20200709124548 79 162 2.0 3.0 0.00 0.00 0.00 59 1018.8
20200709124044 80 115 1.0 2.0 0.00 0.00 0.00 57 1018.8
20200709123541 80 222 4.0 5.0 0.00 0.00 0.00 58 1019.0
20200709123038 79 189 2.0 2.0 0.00 0.00 0.00 58 1019.0
20200709122538 77 100 0.0 1.0 0.00 0.00 0.00 61 1019.2
20200709122031 77 87 2.0 2.0 0.00 0.00 0.00 59 1019.1
20200709121526 80 203 4.0 5.0 0.00 0.00 0.00 58 1019.1
20200709121022 79 158 0.0 1.0 0.00 0.00 0.00 59 1018.8
20200709120520 78 53 3.0 6.0 0.00 0.00 0.00 60 1019.3
20200709120018 78 93 0.0 0.0 0.00 0.00 0.00 58 1018.9
20200709115513 80 301 3.0 7.0 0.00 0.00 0.00 59 1019.1
20200709115013 80 97 1.0 1.0 0.00 0.00 0.00 56 1019.1
20200709114514 79 140 1.0 1.0 0.00 0.00 0.00 56 1019.1
20200709114007 78 156 1.0 2.0 0.00 0.00 0.00 57 1018.9
20200709113502 77 114 2.0 3.0 0.00 0.00 0.00 57 1019.1
20200709113002 78 253 1.0 1.0 0.00 0.00 0.00 55 1019.0
20200709112457 78 122 1.0 1.0 0.00 0.00 0.00 55 1019.1
20200709111955 79 76 2.0 2.0 0.00 0.00 0.00 55 1019.2
20200709111451 80 106 1.0 1.0 0.00 0.00 0.00 56 1019.1
20200709110946 79 126 0.0 1.0 0.00 0.00 0.00 59 1019.1
20200709110448 79 222 3.0 5.0 0.00 0.00 0.00 54 1019.0
20200709105939 80 280 6.0 7.0 0.00 0.00 0.00 54 1019.2
20200709105437 80 96 2.0 3.0 0.00 0.00 0.00 55 1018.9
20200709104934 78 297 2.0 3.0 0.00 0.00 0.00 57 1019.1
20200709104433 78 129 1.0 2.0 0.00 0.00 0.00 58 1019.1
20200709103926 78 44 2.0 3.0 0.00 0.00 0.00 58 1019.2
20200709103426 77 130 0.0 1.0 0.00 0.00 0.00 61 1019.2
20200709102923 78 101 2.0 3.0 0.00 0.00 0.00 56 1019.2
20200709102419 80 280 1.0 2.0 0.00 0.00 0.00 56 1019.2
20200709101919 78 94 2.0 2.0 0.00 0.00 0.00 56 1019.1
20200709101415 77 138 1.0 1.0 0.00 0.00 0.00 59 1019.0
20200709100909 78 58 1.0 2.0 0.00 0.00 0.00 59 1019.1
20200709100407 79 148 4.0 6.0 0.00 0.00 0.00 55 1019.0
20200709095903 80 242 1.0 2.0 0.00 0.00 0.00 57 1019.1
20200709095403 79 250 3.0 6.0 0.00 0.00 0.00 57 1019.3
20200709094857 79 108 2.0 2.0 0.00 0.00 0.00 56 1019.1
20200709094357 79 186 0.0 1.0 0.00 0.00 0.00 55 1019.0
20200709093852 79 103 0.0 1.0 0.00 0.00 0.00 60 1019.2
20200709093350 79 126 2.0 2.0 0.00 0.00 0.00 56 1019.1
20200709092850 79 81 2.0 2.0 0.00 0.00 0.00 56 1018.8
20200709092348 79 109 3.0 5.0 0.00 0.00 0.00 56 1018.8
20200709091843 78 143 1.0 2.0 0.00 0.00 0.00 54 1019.1
20200709091338 78 108 0.0 1.0 0.00 0.00 0.00 54 1019.2
20200709090836 80 239 4.0 5.0 0.00 0.00 0.00 55 1019.1
20200709090335 79 104 0.0 1.0 0.00 0.00 0.00 56 1019.1
20200709085830 78 163 2.0 2.0 0.00 0.00 0.00 58 1018.8
20200709085327 79 242 1.0 2.0 0.00 0.00 0.00 58 1019.1
20200709084825 78 233 1.0 2.0 0.00 0.00 0.00 57 1019.1
20200709084322 79 219 3.0 5.0 0.00 0.00 0.00 54 1019.1
20200709083824 79 190 3.0 5.0 0.00 0.00 0.00 53 1019.2
20200709083316 78 216 1.0 2.0 0.00 0.00 0.00 54 1019.0
20200709082812 79 80 1.0 2.0 0.00 0.00 0.00 56 1018.8
20200709082312 78 264 2.0 2.0 0.00 0.00 0.00 55 1019.0
20200709081805 78 112 2.0 3.0 0.00 0.00 0.00 55 1018.9
20200709081302 78 229 4.0 6.0 0.00 0.00 0.00 54 1019.2
20200709080759 79 57 1.0 1.0 0.00 0.00 0.00 57 1018.9
20200709080255 78 128 0.0 0.0 0.00 0.00 0.00 60 1019.0
20200709075750 78 91 2.0 3.0 0.00 0.00 0.00 57 1019.0
20200709075248 77 50 0.0 0.0 0.00 0.00 0.00 62 1019.0
20200709074748 77 111 0.0 0.0 0.00 0.00 0.00 63 1018.9
20200709074246 76 103 2.0 5.0 0.00 0.00 0.00 60 1019.1
20200709073744 76 145 1.0 2.0 0.00 0.00 0.00 59 1018.8
20200709073242 76 48 2.0 2.0 0.00 0.00 0.00 60 1019.0
20200709072737 75 64 2.0 3.0 0.00 0.00 0.00 61 1019.0
20200709072235 74 138 0.0 1.0 0.00 0.00 0.00 63 1019.0
20200709071731 74 128 2.0 2.0 0.00 0.00 0.00 64 1019.0
20200709071227 74 122 1.0 1.0 0.00 0.00 0.00 63 1019.2
20200709070724 75 120 2.0 5.0 0.00 0.00 0.00 61 1018.8
20200709070222 75 131 2.0 3.0 0.00 0.00 0.00 59 1019.2
20200709065719 75 120 2.0 2.0 0.00 0.00 0.00 59 1019.2
20200709065218 74 103 0.0 1.0 0.00 0.00 0.00 63 1018.8
20200709064717 74 107 0.0 0.0 0.00 0.00 0.00 62 1018.9
20200709064216 74 118 1.0 1.0 0.00 0.00 0.00 66 1019.0
20200709063718 73 142 0.0 1.0 0.00 0.00 0.00 63 1019.1
20200709063213 73 233 3.0 3.0 0.00 0.00 0.00 65 1019.3
20200709062710 73 81 2.0 2.0 0.00 0.00 0.00 65 1019.0
20200709062209 74 115 0.0 1.0 0.00 0.00 0.00 64 1019.1
20200709061703 73 117 1.0 1.0 0.00 0.00 0.00 65 1019.1
20200709061200 74 160 1.0 2.0 0.00 0.00 0.00 64 1019.0
20200709060658 73 120 3.0 7.0 0.00 0.00 0.00 63 1019.3
20200709060157 73 96 1.0 2.0 0.00 0.00 0.00 64 1019.1
20200709055653 73 161 1.0 1.0 0.00 0.00 0.00 66 1019.0
20200709055151 74 114 1.0 1.0 0.00 0.00 0.00 63 1019.2
20200709054651 74 100 1.0 2.0 0.00 0.00 0.00 61 1018.9
20200709054148 75 136 1.0 2.0 0.00 0.00 0.00 61 1019.1
20200709053648 74 108 1.0 1.0 0.00 0.00 0.00 62 1019.0
20200709053147 74 113 0.0 0.0 0.00 0.00 0.00 62 1019.0
20200709052642 74 112 1.0 1.0 0.00 0.00 0.00 64 1019.3
20200709052140 74 138 1.0 1.0 0.00 0.00 0.00 63 1019.0
20200709051637 75 110 0.0 1.0 0.00 0.00 0.00 62 1018.9
20200709051132 74 106 0.0 0.0 0.00 0.00 0.00 61 1019.3
20200709050632 74 126 0.0 1.0 0.00 0.00 0.00 64 1019.0
20200709050129 73 103 0.0 0.0 0.00 0.00 0.00 64 1018.8
20200709045626 73 159 0.0 1.0 0.00 0.00 0.00 64 1019.0
20200709045120 72 114 0.0 0.0 0.00 0.00 0.00 67 1018.9
20200709044617 72 103 0.0 1.0 0.00 0.00 0.00 66 1018.8
20200709044113 72 191 2.0 2.0 0.00 0.00 0.00 64 1018.9
20200709043610 72 138 0.0 1.0 0.00 0.00 0.00 66 1018.9
20200709043106 71 195 2.0 2.0 0.00 0.00 0.00 66 1018.7
20200709042605 71 85 1.0 1.0 0.00 0.00 0.00 68 1018.9
20200709042100 70 150 1.0 1.0 0.00 0.00 0.00 68 1018.7
20200709041555 69 117 0.0 1.0 0.00 0.00 0.00 71 1018.6
20200709041055 68 87 1.0 1.0 0.00 0.00 0.00 72 1018.6
20200709040553 68 98 0.0 0.0 0.00 0.00 0.00 74 1018.5
20200709040047 68 146 0.0 0.0 0.00 0.00 0.00 76 1018.6
20200709035548 68 105 0.0 0.0 0.00 0.00 0.00 74 1018.7
20200709035043 68 108 0.0 1.0 0.00 0.00 0.00 73 1018.5
20200709034544 68 147 0.0 0.0 0.00 0.00 0.00 74 1018.9
20200709034040 68 155 0.0 0.0 0.00 0.00 0.00 75 1018.7
20200709033535 67 140 0.0 0.0 0.00 0.00 0.00 73 1018.7
20200709033031 67 72 0.0 1.0 0.00 0.00 0.00 76 1018.4
20200709032528 67 97 0.0 0.0 0.00 0.00 0.00 76 1018.4
20200709032023 67 104 0.0 0.0 0.00 0.00 0.00 76 1018.6
20200709031520 67 98 0.0 0.0 0.00 0.00 0.00 76 1018.6
20200709031016 67 136 1.0 1.0 0.00 0.00 0.00 75 1018.2
20200709030511 67 103 0.0 1.0 0.00 0.00 0.00 76 1018.6
20200709030010 67 110 0.0 1.0 0.00 0.00 0.00 77 1018.6
20200709025505 66 101 0.0 0.0 0.00 0.00 0.00 78 1018.4
20200709025007 66 91 0.0 0.0 0.00 0.00 0.00 79 1018.3
20200709024500 66 114 0.0 1.0 0.00 0.00 0.00 79 1018.6
20200709023954 66 122 0.0 0.0 0.00 0.00 0.00 79 1018.2
20200709023453 66 102 0.0 0.0 0.00 0.00 0.00 79 1018.4
20200709022951 66 123 0.0 0.0 0.00 0.00 0.00 79 1018.6
20200709022446 66 102 0.0 0.0 0.00 0.00 0.00 79 1018.3
20200709021945 66 130 0.0 0.0 0.00 0.00 0.00 79 1018.4
20200709021444 67 102 0.0 0.0 0.00 0.00 0.00 78 1018.5
20200709020942 66 88 0.0 0.0 0.00 0.00 0.00 78 1018.3
20200709020439 66 94 0.0 0.0 0.00 0.00 0.00 79 1018.5
20200709015934 66 101 0.0 0.0 0.00 0.00 0.00 80 1018.5
20200709015431 66 122 0.0 0.0 0.00 0.00 0.00 80 1018.3
20200709014928 66 103 0.0 0.0 0.00 0.00 0.00 80 1018.4
20200709014425 66 110 0.0 0.0 0.00 0.00 0.00 80 1018.2
20200709013921 66 97 0.0 0.0 0.00 0.00 0.00 80 1018.3
20200709013419 66 113 0.0 0.0 0.00 0.00 0.00 79 1018.4
20200709012912 66 107 0.0 0.0 0.00 0.00 0.00 79 1018.3
20200709012408 66 131 0.0 1.0 0.00 0.00 0.00 80 1018.2
20200709011906 66 104 0.0 0.0 0.00 0.00 0.00 80 1018.0
20200709011404 66 109 1.0 1.0 0.00 0.00 0.00 78 1018.3
20200709010859 66 122 0.0 0.0 0.00 0.00 0.00 80 1017.9
20200709010356 66 106 0.0 0.0 0.00 0.00 0.00 80 1018.3
20200709005855 66 111 0.0 0.0 0.00 0.00 0.00 80 1018.3
20200709005352 66 107 0.0 0.0 0.00 0.00 0.00 78 1018.2
20200709004845 66 106 0.0 0.0 0.00 0.00 0.00 78 1017.9
20200709004344 66 99 0.0 0.0 0.00 0.00 0.00 79 1018.4
20200709003841 67 93 0.0 0.0 0.00 0.00 0.00 77 1018.5
20200709003340 67 103 0.0 0.0 0.00 0.00 0.00 77 1018.5
20200709002835 66 99 0.0 0.0 0.00 0.00 0.00 78 1018.3
20200709002333 66 104 0.0 0.0 0.00 0.00 0.00 77 1018.5
20200709001831 66 91 0.0 1.0 0.00 0.00 0.00 78 1018.4
20200709001331 66 105 0.0 0.0 0.00 0.00 0.00 79 1018.5
20200709000826 66 106 0.0 0.0 0.00 0.00 0.00 80 1018.3
20200709000325 66 92 1.0 2.0 0.00 0.00 0.00 80 1018.5
20200708235823 66 106 0.0 0.0 0.00 0.00 0.00 80 1018.5
20200708235322 67 111 0.0 0.0 0.00 0.00 0.00 78 1018.4
20200708234824 66 91 2.0 2.0 0.00 0.00 0.00 78 1018.3
20200708234315 66 106 0.0 0.0 0.00 0.00 0.00 79 1018.5
20200708233811 66 110 0.0 0.0 0.00 0.00 0.00 80 1018.5
20200708233308 66 108 0.0 0.0 0.00 0.00 0.00 80 1018.5
20200708232805 66 107 1.0 2.0 0.00 0.00 0.00 81 1018.6
20200708232304 66 116 0.0 0.0 0.00 0.00 0.00 82 1018.6
20200708231804 66 98 0.0 0.0 0.00 0.00 0.00 86 1018.7
20200708231304 66 107 0.0 0.0 0.00 0.00 0.00 88 1018.6
20200708230800 67 106 0.0 0.0 0.00 0.00 0.00 86 1018.8
20200708230258 66 120 0.0 0.0 0.00 0.00 0.00 80 1018.5
20200708225756 66 101 0.0 0.0 0.00 0.00 0.00 81 1018.7
20200708225252 67 102 0.0 0.0 0.00 0.00 0.00 82 1018.8
20200708224747 67 100 0.0 0.0 0.00 0.00 0.00 80 1018.7
20200708224246 67 104 0.0 0.0 0.00 0.00 0.00 79 1019.1
20200708223741 67 125 0.0 0.0 0.00 0.00 0.00 79 1019.0
20200708223237 67 140 0.0 0.0 0.00 0.00 0.00 79 1018.7
20200708222735 67 92 0.0 0.0 0.00 0.00 0.00 80 1018.9
20200708222235 67 114 0.0 1.0 0.00 0.00 0.00 79 1019.0
20200708221732 67 106 0.0 0.0 0.00 0.00 0.00 79 1018.8
20200708221227 67 114 0.0 0.0 0.00 0.00 0.00 79 1018.9
20200708220726 67 108 0.0 0.0 0.00 0.00 0.00 80 1019.1
20200708220217 67 118 1.0 1.0 0.00 0.00 0.00 80 1018.8
20200708215716 67 109 0.0 0.0 0.00 0.00 0.00 79 1018.9
20200708215213 67 104 0.0 0.0 0.00 0.00 0.00 79 1018.8
20200708214705 67 118 2.0 3.0 0.00 0.00 0.00 79 1018.7
20200708214200 68 121 0.0 0.0 0.00 0.00 0.00 78 1018.8
20200708213657 67 159 1.0 3.0 0.00 0.00 0.00 79 1018.8
20200708213155 68 133 1.0 1.0 0.00 0.00 0.00 78 1018.8
20200708212651 67 119 1.0 2.0 0.00 0.00 0.00 79 1019.0
20200708212148 67 108 1.0 2.0 0.00 0.00 0.00 79 1018.9
20200708211645 67 106 0.0 0.0 0.00 0.00 0.00 79 1018.9
20200708211141 67 115 0.0 0.0 0.00 0.00 0.00 79 1019.1
20200708210640 67 112 0.0 0.0 0.00 0.00 0.00 79 1018.9
20200708210137 67 133 0.0 0.0 0.00 0.00 0.00 79 1018.9
20200708205636 67 132 0.0 0.0 0.00 0.00 0.00 78 1019.0
20200708205140 67 108 0.0 0.0 0.00 0.00 0.00 78 1018.7